Time;durP1;ratioP1;P1;durP2;ratioP2;P2;SDS_P1;SDS_P2;PMS_P1;PMS_P2;Temp;Humidity;BMP_temperature;BMP_pressure;BME280_temperature;BME280_humidity;BME280_pressure;Samples;Min_cycle;Max_cycle;Signal;HPM_P1;HPM_P2
2023/04/24 00:00:17;;;;;;;7.57;2.40;;;;;;;13.71;59.97;98871.19;5001523;28;20182;-88
2023/04/24 00:02:46;;;;;;;4.83;2.10;;;;;;;13.86;59.21;98867.47;5033454;28;20206;-88
2023/04/24 00:05:17;;;;;;;4.00;2.00;;;;;;;13.81;59.74;98869.59;5016648;28;20178;-88
2023/04/24 00:07:45;;;;;;;9.30;2.10;;;;;;;13.81;59.72;98866.97;5015821;28;20183;-88
2023/04/24 00:10:11;;;;;;;5.73;1.63;;;;;;;13.95;59.21;98864.22;5017781;28;20203;-87
2023/04/24 00:12:38;;;;;;;3.90;1.97;;;;;;;14.07;58.75;98863.34;5034231;28;20183;-88
2023/04/24 00:15:05;;;;;;;4.43;1.87;;;;;;;14.08;58.55;98862.38;5033904;28;20215;-88
2023/04/24 00:17:32;;;;;;;4.77;2.10;;;;;;;13.91;59.32;98857.50;5033865;28;20175;-88
2023/04/24 00:19:58;;;;;;;8.37;2.33;;;;;;;13.80;59.89;98852.13;5033805;28;20697;-87
2023/04/24 00:22:26;;;;;;;6.73;2.53;;;;;;;13.87;60.58;98857.78;5034219;28;20609;-87
2023/04/24 00:24:52;;;;;;;8.70;3.00;;;;;;;14.10;59.70;98851.72;5025666;28;20662;-88
2023/04/24 00:27:18;;;;;;;2.80;1.90;;;;;;;14.26;58.76;98856.75;5016265;28;20183;-89
2023/04/24 00:29:43;;;;;;;3.23;1.97;;;;;;;14.45;57.60;98858.00;5016520;28;20642;-88
2023/04/24 00:32:11;;;;;;;5.83;2.50;;;;;;;14.45;57.50;98857.13;5016719;28;20185;-88
2023/04/24 00:34:37;;;;;;;9.27;2.67;;;;;;;14.51;57.63;98852.28;5016259;28;20171;-89
2023/04/24 00:37:04;;;;;;;5.13;2.40;;;;;;;14.29;58.16;98845.97;5016770;28;20186;-88
2023/04/24 00:39:29;;;;;;;4.47;2.17;;;;;;;14.15;58.72;98844.34;5016379;28;20209;-89
2023/04/24 00:41:56;;;;;;;5.73;2.33;;;;;;;13.80;60.51;98849.50;5016091;28;20240;-88
2023/04/24 00:44:23;;;;;;;6.27;2.80;;;;;;;13.45;61.97;98845.81;5015893;28;20185;-88
2023/04/24 00:46:54;;;;;;;4.80;2.30;;;;;;;13.27;62.67;98850.56;5033717;28;20185;-88
2023/04/24 00:49:22;;;;;;;5.07;2.50;;;;;;;13.06;63.52;98848.50;5033965;28;20158;-87
2023/04/24 00:51:50;;;;;;;7.33;2.90;;;;;;;12.99;64.28;98844.59;5032722;28;20693;-87
2023/04/24 00:54:17;;;;;;;6.30;2.43;;;;;;;13.02;64.37;98839.13;5016178;28;20185;-88
2023/04/24 00:56:44;;;;;;;9.93;3.07;;;;;;;13.08;63.87;98838.72;5033244;28;20182;-88
2023/04/24 00:59:12;;;;;;;7.00;3.10;;;;;;;13.10;63.89;98842.94;5016121;28;20178;-87
2023/04/24 01:01:41;;;;;;;5.20;2.20;;;;;;;13.25;62.92;98847.19;5033486;28;20206;-87
2023/04/24 01:04:08;;;;;;;6.33;2.77;;;;;;;13.36;62.19;98846.47;5016301;28;20394;-88
2023/04/24 01:06:35;;;;;;;5.40;2.60;;;;;;;13.43;62.27;98838.03;5015780;28;20278;-87
2023/04/24 01:09:02;;;;;;;8.07;2.33;;;;;;;13.52;61.97;98836.56;5032911;28;20682;-87
2023/04/24 01:11:29;;;;;;;8.83;2.70;;;;;;;13.56;61.48;98840.66;5033144;28;20266;-87
2023/04/24 01:13:56;;;;;;;8.47;3.07;;;;;;;13.63;60.93;98826.09;5015428;28;20240;-88
2023/04/24 01:16:23;;;;;;;9.00;2.80;;;;;;;13.65;60.80;98828.66;5015672;28;20186;-87
2023/04/24 01:18:48;;;;;;;4.40;2.23;;;;;;;13.70;60.52;98824.75;5015659;28;20519;-87
2023/04/24 01:21:19;;;;;;;6.53;2.50;;;;;;;13.68;60.28;98825.81;5015351;28;20256;-87
2023/04/24 01:23:45;;;;;;;7.07;2.53;;;;;;;13.63;60.53;98820.84;5015436;28;20221;-87
2023/04/24 01:26:17;;;;;;;4.57;2.33;;;;;;;13.55;60.19;98823.16;5032938;28;20256;-87
2023/04/24 01:28:42;;;;;;;5.73;2.33;;;;;;;13.39;60.64;98819.94;5033252;28;20173;-87
2023/04/24 01:31:08;;;;;;;4.73;2.90;;;;;;;13.30;61.11;98825.81;5032883;28;20186;-87
2023/04/24 01:33:34;;;;;;;3.97;2.50;;;;;;;13.32;60.95;98832.66;5015470;28;20183;-87
2023/04/24 01:36:01;;;;;;;5.43;2.30;;;;;;;13.37;60.72;98829.69;5015511;28;20185;-88
2023/04/24 01:38:26;;;;;;;10.50;2.70;;;;;;;13.38;60.66;98828.75;5015498;28;20186;-88
2023/04/24 01:40:52;;;;;;;9.47;3.17;;;;;;;13.37;60.45;98821.81;5015544;28;20635;-88
2023/04/24 01:43:18;;;;;;;21.73;6.13;;;;;;;13.31;60.74;98814.34;5032673;28;20320;-89
2023/04/24 01:45:45;;;;;;;14.17;4.43;;;;;;;13.25;60.87;98818.25;5015603;28;20325;-89
2023/04/24 01:48:11;;;;;;;12.70;3.53;;;;;;;13.18;61.13;98816.13;5032629;28;20534;-89
2023/04/24 01:50:38;;;;;;;12.70;4.07;;;;;;;13.15;60.97;98818.97;5014738;28;20423;-88
2023/04/24 01:53:04;;;;;;;10.03;3.60;;;;;;;13.01;62.01;98824.28;5032807;28;20174;-88
2023/04/24 01:55:31;;;;;;;15.53;4.67;;;;;;;12.82;63.09;98820.25;5001196;28;20274;-88
2023/04/24 01:57:58;;;;;;;11.23;4.20;;;;;;;12.79;63.12;98816.97;4996000;28;20182;-88
2023/04/24 02:00:24;;;;;;;12.43;3.10;;;;;;;12.76;63.13;98815.38;4995958;28;20189;-87
2023/04/24 02:02:51;;;;;;;8.40;3.53;;;;;;;12.70;63.08;98813.19;4995557;28;20203;-87
2023/04/24 02:05:18;;;;;;;9.60;3.30;;;;;;;12.75;63.22;98808.47;5011628;28;20370;-87
2023/04/24 02:07:44;;;;;;;5.03;2.60;;;;;;;12.87;63.02;98823.41;5015273;28;20177;-87
2023/04/24 02:10:10;;;;;;;11.13;2.50;;;;;;;12.90;62.73;98820.59;5033110;28;20189;-87
2023/04/24 02:12:36;;;;;;;6.57;3.13;;;;;;;12.96;61.84;98829.84;5014724;28;20181;-88
2023/04/24 02:15:03;;;;;;;6.13;3.40;;;;;;;13.01;61.83;98829.53;5032624;28;20203;-88
2023/04/24 02:17:30;;;;;;;4.87;2.30;;;;;;;12.89;62.32;98826.78;5032601;28;20190;-88
2023/04/24 02:19:57;;;;;;;5.97;2.93;;;;;;;12.64;62.72;98823.25;5032650;28;20182;-88
2023/04/24 02:22:22;;;;;;;4.43;2.40;;;;;;;12.61;63.49;98824.28;5032560;28;20201;-88
2023/04/24 02:24:49;;;;;;;5.57;2.63;;;;;;;12.47;64.31;98815.63;5015212;28;20254;-89
2023/04/24 02:27:16;;;;;;;5.63;2.90;;;;;;;12.30;65.03;98814.94;5017620;28;20191;-88
2023/04/24 02:29:42;;;;;;;6.60;2.63;;;;;;;12.23;64.92;98820.69;5035774;28;20186;-88
2023/04/24 02:32:11;;;;;;;5.07;2.40;;;;;;;12.27;65.05;98819.53;5018649;28;20257;-88
2023/04/24 02:34:38;;;;;;;8.20;3.17;;;;;;;12.36;64.63;98831.25;5035770;28;20176;-88
2023/04/24 02:37:05;;;;;;;3.97;2.53;;;;;;;12.51;63.73;98838.16;5035990;28;20185;-88
2023/04/24 02:39:30;;;;;;;8.63;2.83;;;;;;;12.48;64.06;98835.72;4979119;28;20280;-88
2023/04/24 02:41:56;;;;;;;5.37;2.77;;;;;;;12.33;64.38;98846.28;4978965;28;20237;-88
2023/04/24 02:44:23;;;;;;;8.17;2.83;;;;;;;12.26;64.50;98841.53;4996499;28;20176;-88
2023/04/24 02:46:48;;;;;;;7.20;3.57;;;;;;;12.31;64.42;98850.81;5023814;28;20183;-88
2023/04/24 02:49:13;;;;;;;4.60;3.20;;;;;;;12.33;64.40;98851.53;5018226;28;20206;-88
2023/04/24 02:51:41;;;;;;;4.47;2.50;;;;;;;12.20;64.63;98836.66;5018376;28;20173;-88
2023/04/24 02:54:08;;;;;;;12.50;3.00;;;;;;;12.06;65.52;98836.69;5035084;28;20211;-88
2023/04/24 02:56:35;;;;;;;4.20;2.17;;;;;;;11.93;66.09;98833.97;5018254;28;20541;-87
2023/04/24 02:59:02;;;;;;;4.70;2.43;;;;;;;11.68;67.12;98832.06;5035335;28;20187;-87
2023/04/24 03:01:29;;;;;;;6.43;2.70;;;;;;;11.76;67.37;98839.47;5035239;28;20604;-87
2023/04/24 03:03:55;;;;;;;7.53;3.90;;;;;;;11.91;66.96;98833.25;5035178;28;20200;-87
2023/04/24 03:06:21;;;;;;;8.53;3.03;;;;;;;11.95;66.60;98833.91;5018064;28;20242;-87
2023/04/24 03:08:46;;;;;;;9.17;2.97;;;;;;;11.99;66.11;98830.13;5017624;28;20226;-87
2023/04/24 03:11:12;;;;;;;6.17;3.43;;;;;;;12.02;65.87;98835.19;5035100;28;20195;-87
2023/04/24 03:13:38;;;;;;;7.93;3.10;;;;;;;11.96;64.85;98830.31;5017253;28;20649;-87
2023/04/24 03:16:05;;;;;;;10.10;4.57;;;;;;;12.00;64.60;98829.22;5035050;28;20180;-87
2023/04/24 03:18:31;;;;;;;7.37;4.03;;;;;;;12.05;64.03;98830.59;5034959;28;20207;-87
2023/04/24 03:20:58;;;;;;;4.80;2.60;;;;;;;12.00;63.51;98831.81;5035539;28;20190;-88
2023/04/24 03:23:23;;;;;;;4.77;3.30;;;;;;;11.96;63.06;98835.56;5012119;28;20294;-88
2023/04/24 03:25:50;;;;;;;10.37;3.80;;;;;;;11.87;63.00;98825.66;5015073;28;20700;-87
2023/04/24 03:28:16;;;;;;;24.60;5.40;;;;;;;11.83;63.34;98837.28;5027145;28;20180;-87
2023/04/24 03:30:42;;;;;;;13.50;4.73;;;;;;;11.82;63.55;98840.88;5017108;28;20633;-87
2023/04/24 03:33:07;;;;;;;7.63;3.60;;;;;;;11.84;63.14;98838.97;5034437;28;20270;-87
2023/04/24 03:35:34;;;;;;;7.27;3.27;;;;;;;11.86;63.03;98845.81;5034726;28;20248;-87
2023/04/24 03:37:59;;;;;;;8.20;3.60;;;;;;;11.78;63.15;98841.97;5034283;28;20269;-88
2023/04/24 03:40:25;;;;;;;7.37;3.23;;;;;;;11.78;63.34;98841.97;5017419;28;20284;-88
2023/04/24 03:42:50;;;;;;;9.27;3.63;;;;;;;11.64;63.71;98837.53;5017273;28;20294;-88
2023/04/24 03:45:17;;;;;;;13.07;4.27;;;;;;;11.64;63.93;98841.00;5016912;28;20198;-88
2023/04/24 03:47:42;;;;;;;9.27;3.53;;;;;;;11.57;64.42;98837.09;5017340;28;20195;-88
2023/04/24 03:50:09;;;;;;;9.97;3.50;;;;;;;11.61;64.25;98837.72;5034960;28;20188;-88
2023/04/24 03:52:35;;;;;;;10.47;4.23;;;;;;;11.65;64.24;98834.84;5015288;28;20237;-88
2023/04/24 03:55:02;;;;;;;8.30;3.57;;;;;;;11.70;64.08;98843.31;4997706;28;20175;-88
2023/04/24 03:57:28;;;;;;;6.83;2.87;;;;;;;11.74;64.13;98832.63;5000154;28;20182;-88
2023/04/24 03:59:55;;;;;;;6.93;3.50;;;;;;;11.70;64.01;98832.81;5016018;28;20200;-88
2023/04/24 04:02:20;;;;;;;12.23;3.90;;;;;;;11.72;64.13;98830.06;5015879;28;20240;-87
2023/04/24 04:04:49;;;;;;;6.40;3.37;;;;;;;11.74;64.50;98840.50;5016236;28;20195;-87
2023/04/24 04:07:14;;;;;;;12.77;3.60;;;;;;;11.75;64.66;98842.16;5016472;28;20542;-88
2023/04/24 04:09:40;;;;;;;9.30;2.60;;;;;;;11.67;65.00;98851.34;5016373;28;20192;-88
2023/04/24 04:12:05;;;;;;;5.53;3.00;;;;;;;11.70;65.08;98848.56;5033775;28;20534;-88
2023/04/24 04:14:30;;;;;;;7.93;3.77;;;;;;;11.76;65.63;98857.00;5016626;28;20265;-87
2023/04/24 04:16:56;;;;;;;6.70;2.90;;;;;;;11.94;65.58;98858.47;5034415;28;20174;-87
2023/04/24 04:19:21;;;;;;;7.60;3.00;;;;;;;12.13;65.99;98854.56;5003542;28;20192;-88
2023/04/24 04:21:52;;;;;;;7.63;3.33;;;;;;;12.39;65.57;98866.09;4997075;28;20657;-88
2023/04/24 04:24:20;;;;;;;12.80;4.10;;;;;;;12.71;65.54;98866.63;4998629;28;20573;-88
2023/04/24 04:26:46;;;;;;;7.40;3.47;;;;;;;13.15;65.39;98861.06;5033234;28;20188;-89
2023/04/24 04:29:13;;;;;;;8.33;3.50;;;;;;;13.68;64.01;98858.22;5031905;28;20634;-88
2023/04/24 04:31:39;;;;;;;5.00;3.10;;;;;;;14.24;62.32;98858.66;5018912;28;20625;-88
2023/04/24 04:34:04;;;;;;;7.30;3.63;;;;;;;14.73;60.26;98859.44;5009353;28;20182;-87
2023/04/24 04:36:29;;;;;;;12.83;4.73;;;;;;;15.17;57.73;98859.59;4995601;28;20182;-88
2023/04/24 04:38:56;;;;;;;11.17;5.67;;;;;;;15.64;56.32;98848.09;5010818;28;20662;-88
2023/04/24 04:41:22;;;;;;;24.23;7.77;;;;;;;16.36;54.42;98841.41;5015902;28;20182;-89
2023/04/24 04:43:47;;;;;;;16.27;6.30;;;;;;;16.92;52.98;98841.25;5015940;28;20604;-88
2023/04/24 04:46:13;;;;;;;14.03;4.47;;;;;;;17.47;50.76;98846.25;5016731;28;20246;-88
2023/04/24 04:48:39;;;;;;;7.97;3.70;;;;;;;18.42;47.86;98839.66;5032358;28;20199;-89
2023/04/24 04:51:05;;;;;;;8.73;3.80;;;;;;;19.58;45.55;98844.00;5014761;28;20624;-88
2023/04/24 04:53:30;;;;;;;6.80;2.87;;;;;;;20.89;42.47;98832.09;5016218;28;20268;-89
2023/04/24 04:55:56;;;;;;;9.00;3.43;;;;;;;21.56;39.92;98827.00;5016296;28;20193;-88
2023/04/24 04:58:21;;;;;;;6.30;3.03;;;;;;;22.31;39.33;98828.88;5016410;28;20185;-88
2023/04/24 05:00:47;;;;;;;8.20;3.27;;;;;;;23.26;37.57;98839.09;5033387;28;20244;-88
2023/04/24 05:03:12;;;;;;;8.17;3.77;;;;;;;24.02;35.65;98831.44;5011761;28;20234;-88
2023/04/24 05:05:40;;;;;;;8.73;3.10;;;;;;;24.89;34.18;98827.69;4999217;28;20179;-88
2023/04/24 05:08:07;;;;;;;6.53;2.80;;;;;;;25.39;33.21;98829.78;5007498;28;20213;-87
2023/04/24 05:10:32;;;;;;;5.90;3.00;;;;;;;25.62;33.79;98833.28;5016036;28;20175;-87
2023/04/24 05:12:58;;;;;;;4.07;2.40;;;;;;;25.47;33.83;98835.94;5015644;28;20178;-87
2023/04/24 05:15:23;;;;;;;6.53;3.00;;;;;;;25.36;33.41;98840.88;5032113;28;20237;-88
2023/04/24 05:17:49;;;;;;;5.30;2.93;;;;;;;25.42;33.53;98834.81;5024950;28;20182;-88
2023/04/24 05:20:15;;;;;;;7.03;3.17;;;;;;;25.36;33.86;98841.72;5016062;28;20650;-88
2023/04/24 05:22:40;;;;;;;6.47;2.83;;;;;;;25.37;33.55;98834.47;5033119;28;20195;-88
2023/04/24 05:25:06;;;;;;;6.10;2.37;;;;;;;25.78;32.73;98838.50;5015735;28;20630;-88
2023/04/24 05:27:31;;;;;;;6.67;2.57;;;;;;;26.11;31.94;98837.09;5015237;28;20178;-88
2023/04/24 05:29:57;;;;;;;5.40;2.60;;;;;;;26.09;32.01;98833.78;5015732;28;20182;-88
2023/04/24 05:32:22;;;;;;;5.37;2.87;;;;;;;25.75;32.55;98841.53;5032203;28;20631;-88
2023/04/24 05:34:48;;;;;;;6.20;2.70;;;;;;;25.50;33.33;98838.25;5015489;28;20212;-88
2023/04/24 05:37:13;;;;;;;6.67;2.10;;;;;;;25.20;33.45;98841.84;5010331;28;20191;-88
2023/04/24 05:39:39;;;;;;;5.10;2.60;;;;;;;25.02;33.66;98844.84;4996417;28;20176;-88
2023/04/24 05:42:05;;;;;;;4.93;2.63;;;;;;;24.78;33.72;98845.03;5011262;28;20214;-88
2023/04/24 05:44:30;;;;;;;4.37;2.50;;;;;;;24.39;33.41;98842.38;5011906;28;20183;-88
2023/04/24 05:46:56;;;;;;;8.53;2.93;;;;;;;23.91;34.89;98852.38;4995410;28;20175;-88
2023/04/24 05:49:22;;;;;;;5.30;2.90;;;;;;;23.59;35.30;98861.31;5031545;28;20608;-88
2023/04/24 05:51:47;;;;;;;6.57;2.60;;;;;;;23.27;35.92;98864.81;5031517;28;20185;-88
2023/04/24 05:54:13;;;;;;;3.67;2.40;;;;;;;23.16;36.20;98874.03;5031520;28;20228;-88
2023/04/24 05:56:39;;;;;;;4.40;2.50;;;;;;;23.31;36.28;98866.16;5032467;28;20194;-88
2023/04/24 05:59:05;;;;;;;6.90;3.60;;;;;;;23.22;36.10;98867.16;5032586;28;20272;-88
2023/04/24 06:01:31;;;;;;;7.70;3.30;;;;;;;22.87;36.85;98856.78;5034197;28;20239;-88
2023/04/24 06:03:56;;;;;;;6.20;3.13;;;;;;;22.42;37.20;98855.31;5036188;28;20203;-88
2023/04/24 06:06:23;;;;;;;5.37;3.00;;;;;;;22.21;38.33;98854.91;5036530;28;20243;-88
2023/04/24 06:08:49;;;;;;;6.57;3.07;;;;;;;22.36;38.18;98847.94;5036158;28;20186;-88
2023/04/24 06:11:14;;;;;;;7.87;3.00;;;;;;;22.94;37.40;98847.09;5036049;28;20190;-88
2023/04/24 06:13:39;;;;;;;6.43;3.27;;;;;;;23.55;36.93;98846.63;5036191;28;20241;-88
2023/04/24 06:16:05;;;;;;;7.43;3.77;;;;;;;23.74;36.32;98830.19;5036167;28;20182;-88
2023/04/24 06:18:30;;;;;;;5.80;3.00;;;;;;;23.80;35.79;98830.31;5036090;28;20213;-88
2023/04/24 06:20:56;;;;;;;5.37;3.20;;;;;;;23.72;36.45;98837.53;5036305;28;20236;-88
2023/04/24 06:23:21;;;;;;;8.03;3.73;;;;;;;23.77;36.65;98836.03;5032852;28;20214;-88
2023/04/24 06:25:47;;;;;;;5.40;2.80;;;;;;;23.74;36.52;98825.66;5016318;28;20175;-88
2023/04/24 06:28:12;;;;;;;6.03;3.40;;;;;;;23.76;36.47;98833.53;4999007;28;20245;-88
2023/04/24 06:30:38;;;;;;;6.97;3.13;;;;;;;23.68;36.55;98831.72;5004534;28;20276;-89
2023/04/24 06:33:03;;;;;;;7.57;2.70;;;;;;;23.69;35.61;98828.00;5036089;28;20629;-89
2023/04/24 06:35:29;;;;;;;7.30;3.63;;;;;;;23.94;36.55;98827.94;5035508;28;20205;-89
2023/04/24 06:37:56;;;;;;;7.40;3.63;;;;;;;24.14;36.75;98829.22;5035703;28;20632;-89
2023/04/24 06:40:21;;;;;;;5.30;3.10;;;;;;;24.27;36.23;98827.66;5035550;28;20186;-89
2023/04/24 06:42:47;;;;;;;8.77;3.67;;;;;;;24.19;36.23;98826.88;5035573;28;20202;-89
2023/04/24 06:45:12;;;;;;;7.83;3.60;;;;;;;24.10;35.58;98820.72;5029169;28;20544;-89
2023/04/24 06:47:38;;;;;;;13.87;4.50;;;;;;;24.15;35.80;98817.53;5015843;28;20183;-89
2023/04/24 06:50:04;;;;;;;7.27;3.53;;;;;;;24.26;36.50;98807.28;5022288;28;20197;-89
2023/04/24 06:52:32;;;;;;;7.87;3.70;;;;;;;24.16;36.02;98803.13;5035446;28;20171;-89
2023/04/24 06:55:04;;;;;;;9.63;4.23;;;;;;;24.38;36.89;98816.56;5035435;28;20190;-89
2023/04/24 06:57:30;;;;;;;8.87;3.53;;;;;;;24.56;36.28;98807.41;5035435;28;20194;-88
2023/04/24 06:59:55;;;;;;;7.67;4.37;;;;;;;24.57;34.81;98815.28;5011621;28;20293;-89
2023/04/24 07:02:21;;;;;;;8.47;3.50;;;;;;;24.58;35.02;98813.47;5015419;28;20195;-89
2023/04/24 07:04:47;;;;;;;5.20;2.90;;;;;;;24.19;34.37;98813.47;5015512;28;20248;-89
2023/04/24 07:07:14;;;;;;;7.07;3.67;;;;;;;24.14;35.88;98814.00;5015698;28;20182;-89
2023/04/24 07:09:42;;;;;;;7.23;3.63;;;;;;;24.25;36.32;98810.09;5010208;28;20224;-89
2023/04/24 07:12:08;;;;;;;7.83;3.53;;;;;;;23.49;35.05;98821.38;5034740;28;20260;-90
2023/04/24 07:14:34;;;;;;;5.20;2.97;;;;;;;23.56;37.22;98817.00;5035041;28;20174;-89
2023/04/24 07:16:59;;;;;;;6.80;2.80;;;;;;;23.97;37.96;98815.06;5035062;28;20199;-90
2023/04/24 07:19:24;;;;;;;5.93;3.13;;;;;;;24.33;36.39;98808.22;5034893;28;20186;-89
2023/04/24 07:21:50;;;;;;;6.47;3.03;;;;;;;24.55;35.70;98805.75;5034936;28;20178;-90
2023/04/24 07:24:15;;;;;;;4.83;2.93;;;;;;;24.55;34.71;98803.94;5035113;28;20545;-90
2023/04/24 07:26:41;;;;;;;10.50;2.97;;;;;;;24.70;35.93;98810.19;5034727;28;20308;-90
2023/04/24 07:29:09;;;;;;;7.43;2.47;;;;;;;24.83;35.20;98797.06;5034771;28;20190;-90
2023/04/24 07:31:35;;;;;;;5.23;3.23;;;;;;;24.93;34.42;98799.50;5017162;28;20220;-90
2023/04/24 07:34:01;;;;;;;6.20;2.77;;;;;;;25.07;36.20;98803.25;5034728;28;20174;-90
2023/04/24 07:36:27;;;;;;;5.90;3.27;;;;;;;24.81;36.12;98798.25;5034989;28;20240;-90
2023/04/24 07:38:54;;;;;;;6.53;2.80;;;;;;;24.85;36.03;98805.75;5034809;28;20690;-90
2023/04/24 07:41:21;;;;;;;6.20;3.00;;;;;;;24.71;35.79;98805.66;5034751;28;20515;-90
2023/04/24 07:43:46;;;;;;;9.67;3.63;;;;;;;24.69;37.32;98811.19;5017062;28;20226;-91
2023/04/24 07:46:12;;;;;;;10.90;3.27;;;;;;;24.86;35.42;98812.78;5034770;28;20178;-89
2023/04/24 07:48:37;;;;;;;4.93;2.97;;;;;;;24.84;35.46;98816.66;5034490;28;20273;-90
2023/04/24 07:51:03;;;;;;;5.93;2.73;;;;;;;24.97;35.88;98816.91;5034474;28;20167;-90
2023/04/24 07:53:28;;;;;;;6.50;2.97;;;;;;;24.81;34.73;98820.53;5034331;28;20257;-91
2023/04/24 07:55:55;;;;;;;7.03;2.80;;;;;;;23.87;35.15;98813.59;5016678;28;20273;-91
2023/04/24 07:58:21;;;;;;;5.47;2.70;;;;;;;23.12;36.84;98818.34;5034413;28;20248;-90
2023/04/24 08:00:46;;;;;;;4.77;2.83;;;;;;;22.89;38.43;98812.84;5034239;28;20182;-90
2023/04/24 08:03:12;;;;;;;7.00;2.63;;;;;;;23.07;37.68;98813.53;5011379;28;20287;-90
2023/04/24 08:05:38;;;;;;;6.57;2.67;;;;;;;23.42;37.63;98812.38;5014147;28;20257;-91
2023/04/24 08:08:04;;;;;;;4.57;2.50;;;;;;;23.68;37.10;98804.09;4996982;28;20204;-90
2023/04/24 08:10:29;;;;;;;6.03;2.83;;;;;;;24.00;36.86;98795.13;5029613;28;20182;-90
2023/04/24 08:12:55;;;;;;;5.40;2.80;;;;;;;24.25;36.59;98799.38;5016654;28;20177;-90
2023/04/24 08:15:21;;;;;;;4.47;2.57;;;;;;;24.45;36.22;98797.94;5033978;28;20182;-90
2023/04/24 08:17:46;;;;;;;8.17;3.03;;;;;;;24.69;35.41;98805.81;5033862;28;20183;-90
2023/04/24 08:20:15;;;;;;;4.77;2.27;;;;;;;24.83;35.23;98809.63;5016954;28;20178;-91
2023/04/24 08:22:41;;;;;;;5.50;3.10;;;;;;;24.96;34.52;98805.34;5033816;28;20202;-91
2023/04/24 08:25:07;;;;;;;5.53;2.20;;;;;;;24.93;33.19;98796.81;5018106;28;20639;-91
2023/04/24 08:27:33;;;;;;;6.90;2.50;;;;;;;24.85;33.78;98802.22;4997920;28;20280;-91
2023/04/24 08:29:59;;;;;;;4.80;2.40;;;;;;;24.38;33.25;98803.19;4998297;28;20632;-91
2023/04/24 08:32:28;;;;;;;4.50;2.43;;;;;;;24.23;33.80;98788.88;5033723;28;20166;-90
2023/04/24 08:34:56;;;;;;;6.90;2.80;;;;;;;24.29;34.50;98792.69;5033919;28;20185;-91
2023/04/24 08:37:22;;;;;;;4.30;2.30;;;;;;;24.20;34.00;98788.38;5033841;28;20261;-91
2023/04/24 08:39:47;;;;;;;4.63;2.50;;;;;;;24.27;35.63;98779.47;5016443;28;20604;-91
2023/04/24 08:42:14;;;;;;;4.60;2.93;;;;;;;24.14;35.58;98783.72;5016157;28;20183;-91
2023/04/24 08:44:40;;;;;;;8.93;2.83;;;;;;;24.30;35.90;98783.63;5016301;28;20196;-91
2023/04/24 08:47:07;;;;;;;3.40;1.70;;;;;;;24.62;37.07;98779.91;5033608;28;20189;-91
2023/04/24 08:49:33;;;;;;;4.83;2.60;;;;;;;24.91;36.11;98769.34;5015559;28;20716;-91
2023/04/24 08:51:59;;;;;;;6.05;2.72;;;;;;;24.94;36.12;98771.66;5033318;28;20265;-91
2023/04/24 08:54:28;;;;;;;4.32;2.47;;;;;;;24.97;35.69;98771.31;5016390;28;20174;-93
2023/04/24 08:56:58;;;;;;;5.43;2.40;;;;;;;24.93;36.50;98765.47;5016195;28;20690;-91
2023/04/24 08:59:24;;;;;;;7.80;2.33;;;;;;;25.00;37.25;98766.41;5033855;28;20177;-92
2023/04/24 09:01:53;;;;;;;7.90;2.40;;;;;;;24.42;36.96;98766.97;5015938;28;20265;-92
2023/04/24 09:04:21;;;;;;;2.80;1.67;;;;;;;24.96;38.23;98754.38;5007471;28;20261;-90
2023/04/24 09:06:49;;;;;;;4.10;2.65;;;;;;;25.17;36.81;98755.53;5014136;28;20183;-90
2023/04/24 09:09:25;;;;;;;4.77;2.57;;;;;;;24.28;35.17;98753.50;5013816;28;20266;-96
2023/04/24 09:11:54;;;;;;;5.40;2.30;;;;;;;23.84;36.70;98761.22;5013947;28;20281;-92
2023/04/24 09:14:22;;;;;;;4.07;2.27;;;;;;;23.73;37.26;98758.94;5013582;28;20211;-93
2023/04/24 09:16:55;;;;;;;5.20;2.33;;;;;;;24.06;36.04;98746.22;4996380;28;20191;-93
2023/04/24 09:19:22;;;;;;;3.63;1.87;;;;;;;23.95;37.15;98746.63;4996606;28;20206;-92
2023/04/24 09:21:47;;;;;;;7.20;2.07;;;;;;;24.05;36.89;98748.09;4996598;28;20183;-92
2023/04/24 09:24:18;;;;;;;4.07;1.93;;;;;;;24.30;35.77;98740.75;5013591;28;20221;-92
2023/04/24 09:26:44;;;;;;;3.80;2.10;;;;;;;24.52;36.41;98739.97;4996288;28;20187;-92
2023/04/24 09:29:41;;;;;;;4.30;2.00;;;;;;;24.66;35.89;98741.03;5012836;28;20190;-95
2023/04/24 09:32:29;;;;;;;5.83;2.50;;;;;;;23.56;36.77;98741.25;5013296;28;20194;-94
2023/04/24 09:35:14;;;;;;;5.10;2.17;;;;;;;24.04;36.20;98740.22;4996830;28;20183;-92
2023/04/24 09:37:47;;;;;;;5.97;2.30;;;;;;;24.49;34.92;98734.97;5017739;28;20175;-92
2023/04/24 09:40:18;;;;;;;7.23;2.50;;;;;;;24.36;35.51;98735.56;5011941;28;20228;-92
2023/04/24 09:43:07;;;;;;;4.93;2.00;;;;;;;24.73;36.69;98732.09;5019548;28;20201;-91
2023/04/24 09:45:37;;;;;;;3.77;2.03;;;;;;;24.45;35.49;98739.81;5019927;28;20174;-92
2023/04/24 09:48:08;;;;;;;5.20;2.33;;;;;;;24.26;36.69;98731.44;5037282;28;20175;-93
2023/04/24 09:50:57;;;;;;;4.47;2.50;;;;;;;24.13;37.12;98725.81;5019946;28;20194;-95
2023/04/24 09:53:26;;;;;;;7.03;2.03;;;;;;;24.51;36.46;98721.38;5008792;28;20183;-91
2023/04/24 09:55:52;;;;;;;3.43;2.07;;;;;;;25.21;35.96;98713.94;5017176;28;20535;-91
2023/04/24 09:58:31;;;;;;;5.97;2.10;;;;;;;25.55;35.59;98707.00;4999872;28;20187;-93
2023/04/24 10:00:57;;;;;;;2.47;1.52;;;;;;;25.75;35.54;98704.59;5000121;28;20600;-91
2023/04/24 10:03:33;;;;;;;6.53;2.08;;;;;;;26.10;36.06;98703.78;5018203;28;20301;-92
2023/04/24 10:06:02;;;;;;;5.47;2.15;;;;;;;26.34;34.18;98701.78;5019308;28;20174;-92
2023/04/24 10:08:56;;;;;;;3.55;1.98;;;;;;;26.57;34.81;98695.19;5019092;28;20198;-92
2023/04/24 10:11:21;;;;;;;4.18;1.98;;;;;;;26.54;35.02;98692.09;5019112;28;20193;-91
2023/04/24 10:13:55;;;;;;;7.65;2.40;;;;;;;26.75;37.32;98689.38;5036816;28;20178;-92
2023/04/24 10:16:22;;;;;;;4.15;1.98;;;;;;;26.27;33.37;98693.66;5028292;28;20182;-93
2023/04/24 10:18:48;;;;;;;3.85;1.90;;;;;;;25.78;35.17;98684.59;5017217;28;20178;-92
2023/04/24 10:21:15;;;;;;;7.30;2.28;;;;;;;25.50;36.22;98682.59;4999669;28;20240;-91
2023/04/24 10:23:42;;;;;;;5.38;2.00;;;;;;;25.50;36.52;98668.31;5016677;28;20199;-92
2023/04/24 10:26:17;;;;;;;4.03;2.15;;;;;;;25.49;36.11;98664.84;5016576;28;20260;-93
2023/04/24 10:28:47;;;;;;;4.03;2.03;;;;;;;25.30;37.49;98656.47;4999511;28;20182;-92
2023/04/24 10:31:15;;;;;;;6.80;2.28;;;;;;;26.12;36.95;98656.13;5016447;28;20179;-92
2023/04/24 10:33:42;;;;;;;4.75;1.90;;;;;;;26.18;34.78;98654.50;5016232;28;20207;-91
2023/04/24 10:36:11;;;;;;;5.63;2.08;;;;;;;26.13;36.05;98662.31;5021258;28;20186;-92
2023/04/24 10:38:56;;;;;;;7.10;1.77;;;;;;;25.94;35.94;98660.22;5018604;28;20186;-96
2023/04/24 10:41:31;;;;;;;3.30;1.90;;;;;;;25.22;37.42;98661.94;5036434;28;20167;-95
2023/04/24 10:44:10;;;;;;;2.97;1.42;;;;;;;24.79;37.16;98656.31;5035889;28;20576;-94
2023/04/24 10:46:36;;;;;;;5.25;2.03;;;;;;;25.03;38.32;98657.94;5018048;28;20170;-92
2023/04/24 10:49:06;;;;;;;7.78;1.80;;;;;;;25.24;36.39;98652.69;5018569;28;20553;-91
2023/04/24 10:51:57;;;;;;;3.80;1.80;;;;;;;24.72;36.85;98655.38;5018502;28;20210;-90
2023/04/24 10:54:41;;;;;;;4.80;2.00;;;;;;;24.73;38.64;98651.69;5018446;28;20182;-91
2023/04/24 10:57:19;;;;;;;7.07;2.25;;;;;;;25.35;36.33;98654.06;5036169;28;20170;-92
2023/04/24 11:00:13;;;;;;;4.28;2.08;;;;;;;25.17;36.97;98646.41;5019518;28;20271;-94
2023/04/24 11:02:40;;;;;;;6.57;2.65;;;;;;;25.49;35.72;98651.41;5018059;28;20198;-91
2023/04/24 11:05:06;;;;;;;5.32;2.17;;;;;;;25.78;36.29;98652.38;5018137;28;20601;-92
2023/04/24 11:08:09;;;;;;;2.95;1.73;;;;;;;25.90;35.53;98646.31;5035366;28;20178;-92
2023/04/24 11:10:38;;;;;;;5.25;2.05;;;;;;;26.39;36.42;98645.63;5018078;28;20189;-92
2023/04/24 11:13:03;;;;;;;11.07;2.17;;;;;;;26.59;35.36;98641.25;5035566;28;20632;-92
2023/04/24 11:15:29;;;;;;;6.43;1.80;;;;;;;26.98;34.15;98630.81;5035317;28;20182;-92
2023/04/24 11:17:55;;;;;;;4.82;1.80;;;;;;;27.41;33.80;98618.06;5017936;28;20182;-91
2023/04/24 11:20:23;;;;;;;5.22;2.30;;;;;;;26.26;35.45;98624.81;5009538;28;20190;-93
2023/04/24 11:22:53;;;;;;;2.55;1.42;;;;;;;25.85;36.23;98627.25;5015448;28;20678;-92
2023/04/24 11:25:22;;;;;;;5.43;1.70;;;;;;;25.50;35.60;98622.69;5015674;28;20169;-94
2023/04/24 11:27:52;;;;;;;7.13;1.63;;;;;;;25.91;37.33;98620.31;5003407;28;20178;-93
2023/04/24 11:30:31;;;;;;;4.70;2.00;;;;;;;26.10;35.55;98617.00;5017787;28;20162;-93
2023/04/24 11:33:03;;;;;;;3.33;1.70;;;;;;;26.11;37.43;98608.75;5019281;28;20647;-91